createdAt,value
2018-07-24T00:02:52.092Z,4.83
2018-07-24T00:06:55.422Z,4.10
2018-07-24T00:10:58.882Z,4.60
2018-07-24T00:15:02.250Z,5.10
2018-07-24T00:19:05.622Z,4.50
2018-07-24T00:23:08.930Z,4.83
2018-07-24T00:27:12.895Z,4.53
2018-07-24T00:31:16.328Z,4.67
2018-07-24T00:35:19.659Z,4.70
2018-07-24T00:39:23.008Z,4.83
2018-07-24T00:43:26.331Z,4.67
2018-07-24T00:47:29.769Z,4.80
2018-07-24T00:51:33.104Z,5.20
2018-07-24T00:55:36.427Z,5.40
2018-07-24T00:59:39.788Z,5.20
2018-07-24T01:03:42.841Z,4.90
2018-07-24T01:07:46.402Z,4.87
2018-07-24T01:11:49.722Z,4.77
2018-07-24T01:15:53.068Z,5.00
2018-07-24T01:19:56.418Z,4.60
2018-07-24T01:23:59.802Z,5.80
2018-07-24T01:28:02.888Z,5.50
2018-07-24T01:32:06.317Z,5.40
2018-07-24T01:36:09.682Z,5.47
2018-07-24T01:40:13.032Z,5.53
2018-07-24T01:44:16.343Z,5.70
2018-07-24T01:48:19.671Z,5.50
2018-07-24T01:52:23.013Z,5.53
2018-07-24T01:56:26.336Z,6.43
2018-07-24T02:00:29.666Z,6.00
2018-07-24T02:04:32.968Z,5.33
2018-07-24T02:08:36.319Z,5.90
2018-07-24T02:12:39.775Z,5.90
2018-07-24T02:16:43.103Z,5.80
2018-07-24T02:20:46.468Z,6.03
2018-07-24T02:24:49.820Z,6.13
2018-07-24T02:28:53.164Z,5.70
2018-07-24T02:32:56.508Z,5.83
2018-07-24T02:36:59.835Z,5.90
2018-07-24T02:41:03.183Z,6.20
2018-07-24T02:45:07.358Z,6.40
2018-07-24T02:49:10.779Z,5.97
2018-07-24T02:53:14.131Z,6.57
2018-07-24T02:57:17.459Z,6.17
2018-07-24T03:01:20.797Z,6.23
2018-07-24T03:05:26.234Z,6.57
2018-07-24T03:09:29.564Z,7.00
2018-07-24T03:13:33.788Z,7.03
2018-07-24T03:17:38.559Z,7.00
2018-07-24T03:21:42.503Z,7.23
2018-07-24T03:25:45.847Z,7.10
2018-07-24T03:29:49.164Z,7.07
2018-07-24T03:33:52.509Z,6.87
2018-07-24T03:37:55.860Z,7.90
2018-07-24T03:41:59.205Z,7.23
2018-07-24T03:46:02.559Z,7.20
2018-07-24T03:50:05.900Z,6.30
2018-07-24T03:54:09.238Z,6.40
2018-07-24T03:58:12.641Z,7.23
2018-07-24T04:02:16.034Z,7.03
2018-07-24T04:06:19.359Z,6.50
2018-07-24T04:10:23.134Z,7.27
2018-07-24T04:14:26.464Z,7.53
2018-07-24T04:18:34.044Z,7.30
2018-07-24T04:22:37.399Z,6.63
2018-07-24T04:26:40.724Z,6.87
2018-07-24T04:30:44.090Z,7.30
2018-07-24T04:34:48.372Z,7.70
2018-07-24T04:38:51.696Z,8.10
2018-07-24T04:42:55.052Z,7.90
2018-07-24T04:46:58.587Z,8.70
2018-07-24T04:51:01.977Z,8.30
2018-07-24T04:55:05.545Z,8.50
2018-07-24T04:59:09.156Z,8.93
2018-07-24T05:03:12.581Z,9.37
2018-07-24T05:07:15.922Z,9.87
2018-07-24T05:11:20.173Z,10.70
2018-07-24T05:15:23.536Z,10.23
2018-07-24T05:19:26.895Z,11.20
2018-07-24T05:23:30.297Z,10.87
2018-07-24T05:27:33.603Z,12.33
2018-07-24T05:31:36.979Z,12.43
2018-07-24T05:35:40.364Z,11.00
2018-07-24T05:39:43.725Z,10.20
2018-07-24T05:43:47.083Z,9.60
2018-07-24T05:47:50.492Z,9.27
2018-07-24T05:51:53.821Z,9.40
2018-07-24T05:56:01.403Z,9.07
2018-07-24T06:00:05.384Z,8.40
2018-07-24T06:04:08.707Z,8.40
2018-07-24T06:08:12.027Z,7.30
2018-07-24T06:12:15.384Z,6.60
2018-07-24T06:16:18.739Z,6.10
2018-07-24T06:20:22.635Z,6.70
2018-07-24T06:24:25.739Z,7.10
2018-07-24T06:28:29.096Z,7.23
2018-07-24T06:32:32.484Z,7.90
2018-07-24T06:36:35.824Z,7.40
2018-07-24T06:40:39.216Z,6.70
2018-07-24T06:44:42.648Z,6.70
2018-07-24T06:48:46.062Z,5.47
2018-07-24T06:52:49.496Z,5.67
2018-07-24T06:56:52.938Z,5.53
2018-07-24T07:00:56.484Z,4.83
2018-07-24T07:04:59.887Z,4.50
2018-07-24T07:09:05.927Z,5.10
2018-07-24T07:13:09.283Z,4.30
2018-07-24T07:17:12.664Z,4.70
2018-07-24T07:21:16.067Z,5.00
2018-07-24T07:25:19.601Z,4.40
2018-07-24T07:29:22.993Z,4.70
2018-07-24T07:33:26.403Z,4.13
2018-07-24T07:37:29.804Z,4.20
2018-07-24T07:41:57.456Z,4.37
2018-07-24T07:46:00.543Z,4.40
2018-07-24T07:50:04.247Z,4.30
2018-07-24T07:54:08.345Z,3.87
2018-07-24T07:58:11.663Z,4.30
2018-07-24T08:02:14.984Z,3.80
2018-07-24T08:06:18.472Z,3.80
2018-07-24T08:10:22.143Z,4.00
2018-07-24T08:14:25.558Z,4.07
2018-07-24T08:18:28.927Z,3.90
2018-07-24T08:22:32.451Z,3.93
2018-07-24T08:26:36.015Z,3.43
2018-07-24T08:30:39.503Z,3.57
2018-07-24T08:34:43.071Z,3.37
2018-07-24T08:38:46.633Z,3.37
2018-07-24T08:42:49.883Z,3.90
2018-07-24T08:46:53.393Z,3.70
2018-07-24T08:50:57.373Z,3.33
2018-07-24T08:55:00.979Z,3.73
2018-07-24T08:59:07.191Z,3.95
2018-07-24T09:03:10.644Z,3.70
2018-07-24T09:07:14.001Z,3.53
2018-07-24T09:11:21.712Z,3.72
2018-07-24T09:15:25.120Z,3.50
2018-07-24T09:19:28.609Z,3.23
2018-07-24T09:23:31.766Z,3.23
2018-07-24T09:28:08.141Z,3.10
2018-07-24T09:32:18.068Z,3.30
2018-07-24T09:40:53.136Z,3.30
2018-07-24T09:50:46.548Z,3.33
2018-07-24T09:54:58.112Z,3.50
2018-07-24T09:59:06.206Z,3.75
2018-07-24T10:03:09.554Z,3.65
2018-07-24T10:07:12.890Z,4.00
2018-07-24T10:11:16.359Z,3.20
2018-07-24T10:15:19.696Z,3.37
2018-07-24T10:19:23.035Z,3.47
2018-07-24T10:23:26.386Z,3.70
2018-07-24T10:27:29.759Z,3.65
2018-07-24T10:31:33.223Z,3.70
2018-07-24T10:35:37.508Z,3.72
2018-07-24T10:39:41.496Z,3.75
2018-07-24T10:43:44.880Z,3.77
2018-07-24T10:47:48.267Z,3.65
2018-07-24T10:51:51.659Z,3.77
2018-07-24T10:55:55.048Z,3.50
2018-07-24T10:59:58.391Z,3.75
2018-07-24T11:04:01.806Z,3.77
2018-07-24T11:08:05.336Z,3.60
2018-07-24T11:12:08.522Z,3.70
2018-07-24T11:16:11.869Z,3.30
2018-07-24T11:20:15.376Z,3.40
2018-07-24T11:24:18.842Z,3.65
2018-07-24T11:28:23.201Z,3.67
2018-07-24T11:32:26.578Z,3.33
2018-07-24T11:36:30.296Z,3.33
2018-07-24T11:40:33.660Z,3.47
2018-07-24T11:44:37.040Z,3.25
2018-07-24T11:48:40.478Z,3.00
2018-07-24T11:52:43.947Z,3.62
2018-07-24T11:56:47.279Z,3.30
2018-07-24T12:01:13.687Z,3.35
2018-07-24T12:05:43.286Z,3.42
2018-07-24T12:09:49.341Z,3.08
2018-07-24T12:13:52.836Z,3.08
2018-07-24T12:17:56.183Z,3.35
2018-07-24T12:21:59.545Z,3.10
2018-07-24T12:26:02.861Z,3.30
2018-07-24T12:30:10.011Z,3.58
2018-07-24T12:34:13.339Z,3.10
2018-07-24T12:38:16.668Z,3.10
2018-07-24T12:42:20.025Z,3.40
2018-07-24T12:46:23.384Z,3.50
2018-07-24T12:50:26.588Z,3.00
2018-07-24T12:54:29.919Z,3.05
2018-07-24T12:58:33.242Z,3.10
2018-07-24T13:02:36.576Z,2.90
2018-07-24T13:06:39.950Z,3.20
2018-07-24T13:10:43.401Z,3.10
2018-07-24T13:14:46.744Z,3.12
2018-07-24T13:18:50.088Z,2.98
2018-07-24T13:22:53.407Z,3.00
2018-07-24T13:26:56.749Z,3.10
2018-07-24T13:31:00.068Z,3.10
2018-07-24T13:35:04.199Z,2.80
2018-07-24T13:39:09.893Z,3.08
2018-07-24T13:43:13.242Z,3.15
2018-07-24T13:47:16.572Z,3.22
2018-07-24T13:51:19.956Z,3.33
2018-07-24T13:55:23.300Z,3.10
2018-07-24T13:59:26.668Z,2.98
2018-07-24T14:03:30.015Z,2.80
2018-07-24T14:07:33.349Z,2.95
2018-07-24T14:11:36.828Z,2.80
2018-07-24T14:15:40.160Z,2.95
2018-07-24T14:19:43.526Z,3.10
2018-07-24T14:23:46.890Z,3.40
2018-07-24T14:27:50.228Z,3.25
2018-07-24T14:31:53.548Z,2.90
2018-07-24T14:35:56.896Z,3.08
2018-07-24T14:40:00.236Z,2.92
2018-07-24T14:44:03.580Z,2.87
2018-07-24T14:48:06.972Z,3.10
2018-07-24T14:52:11.111Z,2.83
2018-07-24T14:56:14.418Z,2.62
2018-07-24T15:00:17.751Z,3.05
2018-07-24T15:04:21.092Z,3.00
2018-07-24T15:08:24.430Z,2.65
2018-07-24T15:12:27.742Z,3.10
2018-07-24T15:16:31.097Z,2.72
2018-07-24T15:20:34.452Z,2.90
2018-07-24T15:24:37.799Z,2.90
2018-07-24T15:28:41.165Z,3.00
2018-07-24T15:32:44.486Z,2.80
2018-07-24T15:36:47.815Z,2.70
2018-07-24T15:40:51.150Z,2.98
2018-07-24T15:44:54.504Z,2.60
2018-07-24T15:48:57.847Z,2.60
2018-07-24T15:53:01.170Z,3.33
2018-07-24T15:57:04.509Z,3.40
2018-07-24T16:01:07.835Z,2.85
2018-07-24T16:05:11.209Z,3.20
2018-07-24T16:09:14.550Z,3.05
2018-07-24T16:13:18.063Z,2.80
2018-07-24T16:17:28.126Z,2.60
2018-07-24T16:21:31.685Z,2.83
2018-07-24T16:25:35.104Z,2.47
2018-07-24T16:29:38.653Z,2.45
2018-07-24T16:33:42.016Z,3.05
2018-07-24T16:37:45.352Z,2.70
2018-07-24T16:41:48.722Z,2.80
2018-07-24T16:45:52.051Z,2.75
2018-07-24T16:49:55.385Z,2.47
2018-07-24T16:53:58.765Z,2.80
2018-07-24T16:58:02.182Z,3.20
2018-07-24T17:02:05.499Z,2.67
2018-07-24T17:06:08.866Z,2.70
2018-07-24T17:10:12.224Z,2.58
2018-07-24T17:14:15.600Z,2.37
2018-07-24T17:18:18.955Z,2.30
2018-07-24T17:22:22.304Z,2.60
2018-07-24T17:26:25.899Z,2.50
2018-07-24T17:30:29.152Z,2.58
2018-07-24T17:34:32.514Z,2.50
2018-07-24T17:38:35.896Z,2.70
2018-07-24T17:42:39.223Z,2.58
2018-07-24T17:46:42.553Z,2.30
2018-07-24T17:50:46.085Z,2.30
2018-07-24T17:55:19.381Z,2.60
2018-07-24T17:59:23.072Z,2.62
2018-07-24T18:03:26.410Z,2.47
2018-07-24T18:07:38.283Z,2.60
2018-07-24T18:11:47.073Z,2.30
2018-07-24T18:15:50.436Z,2.40
2018-07-24T18:19:53.804Z,2.40
2018-07-24T18:23:57.144Z,2.30
2018-07-24T18:28:00.467Z,2.30
2018-07-24T18:32:04.482Z,2.27
2018-07-24T18:36:07.855Z,2.40
2018-07-24T18:40:12.016Z,2.50
2018-07-24T18:44:15.385Z,2.42
2018-07-24T18:48:18.727Z,2.37
2018-07-24T18:52:22.067Z,2.30
2018-07-24T18:56:25.442Z,2.80
2018-07-24T19:00:28.789Z,2.52
2018-07-24T19:04:32.171Z,2.52
2018-07-24T19:08:35.561Z,2.58
2018-07-24T19:12:38.920Z,3.10
2018-07-24T19:16:42.278Z,2.92
2018-07-24T19:20:45.635Z,2.40
2018-07-24T19:24:49.046Z,2.60
2018-07-24T19:28:52.552Z,2.30
2018-07-24T19:32:55.888Z,2.60
2018-07-24T19:36:59.252Z,2.67
2018-07-24T19:41:02.621Z,2.80
2018-07-24T19:45:06.220Z,2.70
2018-07-24T19:49:09.572Z,2.60
2018-07-24T19:53:13.944Z,2.70
2018-07-24T19:57:17.288Z,2.52
2018-07-24T20:01:20.740Z,3.05
2018-07-24T20:05:24.074Z,2.90
2018-07-24T20:09:27.451Z,2.83
2018-07-24T20:13:30.799Z,2.67
2018-07-24T20:17:34.147Z,2.95
2018-07-24T20:21:39.181Z,2.80
2018-07-24T20:25:42.547Z,3.00
2018-07-24T20:29:45.987Z,3.08
2018-07-24T20:33:49.355Z,2.90
2018-07-24T20:37:52.564Z,3.15
2018-07-24T20:41:55.909Z,2.62
2018-07-24T20:45:59.349Z,2.73
2018-07-24T20:50:02.747Z,2.85
2018-07-24T20:54:06.156Z,3.08
2018-07-24T20:58:09.535Z,2.75
2018-07-24T21:02:12.927Z,2.70
2018-07-24T21:06:16.313Z,3.10
2018-07-24T21:10:20.285Z,2.85
2018-07-24T21:14:23.666Z,3.40
2018-07-24T21:18:27.056Z,3.08
2018-07-24T21:22:30.456Z,3.00
2018-07-24T21:26:33.865Z,3.02
2018-07-24T21:30:37.303Z,2.93
2018-07-24T21:34:40.760Z,2.80
2018-07-24T21:38:44.431Z,3.13
2018-07-24T21:42:47.831Z,3.07
2018-07-24T21:46:51.196Z,2.87
2018-07-24T21:50:54.660Z,3.00
2018-07-24T21:54:58.249Z,2.87
2018-07-24T21:59:01.647Z,3.30
2018-07-24T22:03:07.021Z,2.83
2018-07-24T22:07:10.404Z,2.70
2018-07-24T22:11:14.052Z,2.97
2018-07-24T22:15:31.546Z,3.03
2018-07-24T22:19:35.356Z,3.07
2018-07-24T22:23:45.428Z,3.17
2018-07-24T22:27:48.802Z,3.20
2018-07-24T22:31:52.383Z,3.20
2018-07-24T22:35:55.758Z,3.20
2018-07-24T22:39:59.122Z,3.80
2018-07-24T22:44:04.871Z,3.30
2018-07-24T22:48:08.273Z,3.30
2018-07-24T22:52:11.653Z,3.23
2018-07-24T22:56:14.773Z,3.00
2018-07-24T23:00:18.159Z,3.30
2018-07-24T23:04:21.585Z,3.43
2018-07-24T23:08:24.968Z,3.53
2018-07-24T23:12:28.328Z,3.00
2018-07-24T23:16:31.717Z,3.73
2018-07-24T23:20:35.157Z,3.57
2018-07-24T23:24:38.521Z,3.30
2018-07-24T23:28:41.899Z,3.07
2018-07-24T23:32:45.283Z,3.47
2018-07-24T23:36:48.699Z,3.57
2018-07-24T23:40:52.056Z,3.20
2018-07-24T23:44:55.416Z,4.07
2018-07-24T23:48:58.757Z,3.30
2018-07-24T23:53:02.074Z,3.40
2018-07-24T23:57:05.442Z,3.43
